sensor_id;sensor_type;location;lat;lon;timestamp;P1;durP1;ratioP1;P2;durP2;ratioP2
70420;SDS011;57848;51.938;15.520;2023-07-13T00:02:17;6.43;;;2.00;;
70420;SDS011;57848;51.938;15.520;2023-07-13T00:04:42;5.97;;;1.90;;
70420;SDS011;57848;51.938;15.520;2023-07-13T00:07:08;6.33;;;1.70;;
70420;SDS011;57848;51.938;15.520;2023-07-13T00:09:34;6.13;;;2.00;;
70420;SDS011;57848;51.938;15.520;2023-07-13T00:12:00;6.27;;;1.90;;
70420;SDS011;57848;51.938;15.520;2023-07-13T00:14:26;5.38;;;1.70;;
70420;SDS011;57848;51.938;15.520;2023-07-13T00:16:53;6.20;;;1.60;;
70420;SDS011;57848;51.938;15.520;2023-07-13T00:19:18;6.17;;;2.03;;
70420;SDS011;57848;51.938;15.520;2023-07-13T00:21:44;5.20;;;1.60;;
70420;SDS011;57848;51.938;15.520;2023-07-13T00:24:14;5.88;;;1.92;;
70420;SDS011;57848;51.938;15.520;2023-07-13T00:26:40;6.30;;;1.90;;
70420;SDS011;57848;51.938;15.520;2023-07-13T00:29:09;5.10;;;1.60;;
70420;SDS011;57848;51.938;15.520;2023-07-13T00:31:35;5.87;;;1.70;;
70420;SDS011;57848;51.938;15.520;2023-07-13T00:34:01;6.10;;;1.50;;
70420;SDS011;57848;51.938;15.520;2023-07-13T00:36:27;6.33;;;1.50;;
70420;SDS011;57848;51.938;15.520;2023-07-13T00:38:52;6.50;;;1.60;;
70420;SDS011;57848;51.938;15.520;2023-07-13T00:41:18;5.90;;;1.60;;
70420;SDS011;57848;51.938;15.520;2023-07-13T00:43:43;6.53;;;1.88;;
70420;SDS011;57848;51.938;15.520;2023-07-13T00:46:42;7.03;;;1.80;;
70420;SDS011;57848;51.938;15.520;2023-07-13T00:49:04;5.63;;;1.80;;
70420;SDS011;57848;51.938;15.520;2023-07-13T00:51:34;7.73;;;1.60;;
70420;SDS011;57848;51.938;15.520;2023-07-13T00:54:03;5.45;;;1.45;;
70420;SDS011;57848;51.938;15.520;2023-07-13T00:56:31;6.00;;;2.08;;
70420;SDS011;57848;51.938;15.520;2023-07-13T00:58:59;5.38;;;1.63;;
70420;SDS011;57848;51.938;15.520;2023-07-13T01:01:27;6.38;;;1.83;;
70420;SDS011;57848;51.938;15.520;2023-07-13T01:03:52;5.83;;;2.00;;
70420;SDS011;57848;51.938;15.520;2023-07-13T01:06:19;6.68;;;2.30;;
70420;SDS011;57848;51.938;15.520;2023-07-13T01:08:44;5.80;;;1.80;;
70420;SDS011;57848;51.938;15.520;2023-07-13T01:11:09;7.40;;;1.97;;
70420;SDS011;57848;51.938;15.520;2023-07-13T01:13:35;5.77;;;1.50;;
70420;SDS011;57848;51.938;15.520;2023-07-13T01:16:02;5.18;;;1.60;;
70420;SDS011;57848;51.938;15.520;2023-07-13T01:18:30;4.83;;;1.53;;
70420;SDS011;57848;51.938;15.520;2023-07-13T01:23:24;5.00;;;1.40;;
70420;SDS011;57848;51.938;15.520;2023-07-13T01:25:51;6.50;;;2.03;;
70420;SDS011;57848;51.938;15.520;2023-07-13T01:28:17;5.80;;;1.90;;
70420;SDS011;57848;51.938;15.520;2023-07-13T01:30:45;5.47;;;1.87;;
70420;SDS011;57848;51.938;15.520;2023-07-13T01:33:16;5.55;;;1.80;;
70420;SDS011;57848;51.938;15.520;2023-07-13T01:35:43;6.50;;;2.15;;
70420;SDS011;57848;51.938;15.520;2023-07-13T01:38:11;5.38;;;1.90;;
70420;SDS011;57848;51.938;15.520;2023-07-13T01:40:37;6.10;;;2.30;;
70420;SDS011;57848;51.938;15.520;2023-07-13T01:43:03;5.60;;;1.97;;
70420;SDS011;57848;51.938;15.520;2023-07-13T01:45:29;5.82;;;1.83;;
70420;SDS011;57848;51.938;15.520;2023-07-13T01:47:54;6.93;;;2.30;;
70420;SDS011;57848;51.938;15.520;2023-07-13T01:50:20;6.50;;;2.00;;
70420;SDS011;57848;51.938;15.520;2023-07-13T01:52:45;6.73;;;2.10;;
70420;SDS011;57848;51.938;15.520;2023-07-13T01:55:11;6.50;;;2.17;;
70420;SDS011;57848;51.938;15.520;2023-07-13T01:57:36;7.20;;;2.30;;
70420;SDS011;57848;51.938;15.520;2023-07-13T02:00:05;6.83;;;2.13;;
70420;SDS011;57848;51.938;15.520;2023-07-13T02:02:40;5.57;;;2.10;;
70420;SDS011;57848;51.938;15.520;2023-07-13T02:05:08;5.78;;;2.40;;
70420;SDS011;57848;51.938;15.520;2023-07-13T02:07:33;5.27;;;1.73;;
70420;SDS011;57848;51.938;15.520;2023-07-13T02:09:59;6.43;;;2.10;;
70420;SDS011;57848;51.938;15.520;2023-07-13T02:12:24;7.93;;;2.40;;
70420;SDS011;57848;51.938;15.520;2023-07-13T02:14:49;10.20;;;2.60;;
70420;SDS011;57848;51.938;15.520;2023-07-13T02:17:15;5.57;;;2.13;;
70420;SDS011;57848;51.938;15.520;2023-07-13T02:19:40;8.70;;;2.77;;
70420;SDS011;57848;51.938;15.520;2023-07-13T02:22:06;5.67;;;2.40;;
70420;SDS011;57848;51.938;15.520;2023-07-13T02:24:31;7.23;;;2.33;;
70420;SDS011;57848;51.938;15.520;2023-07-13T02:26:57;7.10;;;2.30;;
70420;SDS011;57848;51.938;15.520;2023-07-13T02:29:22;7.90;;;2.60;;
70420;SDS011;57848;51.938;15.520;2023-07-13T02:31:48;8.30;;;2.22;;
70420;SDS011;57848;51.938;15.520;2023-07-13T02:34:14;7.87;;;2.70;;
70420;SDS011;57848;51.938;15.520;2023-07-13T02:36:39;7.37;;;2.43;;
70420;SDS011;57848;51.938;15.520;2023-07-13T02:39:06;7.27;;;2.80;;
70420;SDS011;57848;51.938;15.520;2023-07-13T02:41:34;6.88;;;2.97;;
70420;SDS011;57848;51.938;15.520;2023-07-13T02:44:00;8.27;;;2.40;;
70420;SDS011;57848;51.938;15.520;2023-07-13T02:46:35;8.65;;;2.50;;
70420;SDS011;57848;51.938;15.520;2023-07-13T02:49:03;6.18;;;2.47;;
70420;SDS011;57848;51.938;15.520;2023-07-13T02:51:28;6.13;;;2.28;;
70420;SDS011;57848;51.938;15.520;2023-07-13T02:53:54;8.80;;;2.63;;
70420;SDS011;57848;51.938;15.520;2023-07-13T02:56:22;7.57;;;2.30;;
70420;SDS011;57848;51.938;15.520;2023-07-13T02:58:50;5.90;;;2.22;;
70420;SDS011;57848;51.938;15.520;2023-07-13T03:01:15;6.80;;;2.37;;
70420;SDS011;57848;51.938;15.520;2023-07-13T03:03:44;7.53;;;2.60;;
70420;SDS011;57848;51.938;15.520;2023-07-13T03:06:10;7.40;;;2.58;;
70420;SDS011;57848;51.938;15.520;2023-07-13T03:08:44;7.55;;;2.50;;
70420;SDS011;57848;51.938;15.520;2023-07-13T03:11:11;5.87;;;2.63;;
70420;SDS011;57848;51.938;15.520;2023-07-13T03:13:43;6.30;;;2.40;;
70420;SDS011;57848;51.938;15.520;2023-07-13T03:16:09;8.10;;;2.53;;
70420;SDS011;57848;51.938;15.520;2023-07-13T03:18:35;7.00;;;2.60;;
70420;SDS011;57848;51.938;15.520;2023-07-13T03:21:04;7.80;;;2.63;;
70420;SDS011;57848;51.938;15.520;2023-07-13T03:23:30;6.90;;;2.60;;
70420;SDS011;57848;51.938;15.520;2023-07-13T03:26:02;7.85;;;2.70;;
70420;SDS011;57848;51.938;15.520;2023-07-13T03:28:32;7.35;;;2.90;;
70420;SDS011;57848;51.938;15.520;2023-07-13T03:31:01;7.40;;;2.67;;
70420;SDS011;57848;51.938;15.520;2023-07-13T03:33:30;10.30;;;2.53;;
70420;SDS011;57848;51.938;15.520;2023-07-13T03:35:56;6.05;;;2.28;;
70420;SDS011;57848;51.938;15.520;2023-07-13T03:38:22;7.70;;;2.90;;
70420;SDS011;57848;51.938;15.520;2023-07-13T03:40:48;8.27;;;3.00;;
70420;SDS011;57848;51.938;15.520;2023-07-13T03:43:14;8.00;;;2.70;;
70420;SDS011;57848;51.938;15.520;2023-07-13T03:45:39;6.67;;;2.50;;
70420;SDS011;57848;51.938;15.520;2023-07-13T03:48:05;8.38;;;2.75;;
70420;SDS011;57848;51.938;15.520;2023-07-13T03:50:31;7.60;;;2.20;;
70420;SDS011;57848;51.938;15.520;2023-07-13T03:52:57;8.57;;;2.70;;
70420;SDS011;57848;51.938;15.520;2023-07-13T03:55:23;7.65;;;2.50;;
70420;SDS011;57848;51.938;15.520;2023-07-13T03:57:53;8.13;;;2.50;;
70420;SDS011;57848;51.938;15.520;2023-07-13T04:00:22;9.85;;;2.60;;
70420;SDS011;57848;51.938;15.520;2023-07-13T04:02:48;7.37;;;2.73;;
70420;SDS011;57848;51.938;15.520;2023-07-13T04:05:14;6.57;;;2.15;;
70420;SDS011;57848;51.938;15.520;2023-07-13T04:07:40;8.03;;;2.37;;
70420;SDS011;57848;51.938;15.520;2023-07-13T04:10:05;7.27;;;2.20;;
70420;SDS011;57848;51.938;15.520;2023-07-13T04:12:31;6.55;;;2.20;;
70420;SDS011;57848;51.938;15.520;2023-07-13T04:14:56;6.57;;;2.80;;
70420;SDS011;57848;51.938;15.520;2023-07-13T04:17:22;10.30;;;2.53;;
70420;SDS011;57848;51.938;15.520;2023-07-13T04:19:47;9.30;;;2.90;;
70420;SDS011;57848;51.938;15.520;2023-07-13T04:22:13;8.80;;;3.17;;
70420;SDS011;57848;51.938;15.520;2023-07-13T04:24:39;7.80;;;2.97;;
70420;SDS011;57848;51.938;15.520;2023-07-13T04:27:04;7.13;;;2.40;;
70420;SDS011;57848;51.938;15.520;2023-07-13T04:29:30;7.50;;;2.53;;
70420;SDS011;57848;51.938;15.520;2023-07-13T04:31:55;7.30;;;2.60;;
70420;SDS011;57848;51.938;15.520;2023-07-13T04:34:20;7.40;;;2.77;;
70420;SDS011;57848;51.938;15.520;2023-07-13T04:36:46;9.03;;;3.13;;
70420;SDS011;57848;51.938;15.520;2023-07-13T04:39:11;9.23;;;2.70;;
70420;SDS011;57848;51.938;15.520;2023-07-13T04:41:36;7.07;;;2.67;;
70420;SDS011;57848;51.938;15.520;2023-07-13T04:44:02;8.47;;;2.73;;
70420;SDS011;57848;51.938;15.520;2023-07-13T04:46:28;8.83;;;2.70;;
70420;SDS011;57848;51.938;15.520;2023-07-13T04:48:53;6.77;;;2.47;;
70420;SDS011;57848;51.938;15.520;2023-07-13T04:51:19;8.70;;;2.40;;
70420;SDS011;57848;51.938;15.520;2023-07-13T04:53:44;7.57;;;2.70;;
70420;SDS011;57848;51.938;15.520;2023-07-13T04:56:10;8.13;;;3.00;;
70420;SDS011;57848;51.938;15.520;2023-07-13T04:58:35;9.57;;;2.60;;
70420;SDS011;57848;51.938;15.520;2023-07-13T05:01:01;8.77;;;2.50;;
70420;SDS011;57848;51.938;15.520;2023-07-13T05:03:28;7.85;;;2.78;;
70420;SDS011;57848;51.938;15.520;2023-07-13T05:05:56;7.27;;;2.80;;
70420;SDS011;57848;51.938;15.520;2023-07-13T05:08:23;10.30;;;2.70;;
70420;SDS011;57848;51.938;15.520;2023-07-13T05:10:49;7.33;;;2.57;;
70420;SDS011;57848;51.938;15.520;2023-07-13T05:13:15;7.37;;;2.93;;
70420;SDS011;57848;51.938;15.520;2023-07-13T05:15:40;8.80;;;2.73;;
70420;SDS011;57848;51.938;15.520;2023-07-13T05:18:06;8.87;;;2.80;;
70420;SDS011;57848;51.938;15.520;2023-07-13T05:20:31;7.90;;;2.80;;
70420;SDS011;57848;51.938;15.520;2023-07-13T05:22:56;8.33;;;2.60;;
70420;SDS011;57848;51.938;15.520;2023-07-13T05:25:22;7.73;;;2.60;;
70420;SDS011;57848;51.938;15.520;2023-07-13T05:27:47;7.33;;;2.50;;
70420;SDS011;57848;51.938;15.520;2023-07-13T05:30:13;11.73;;;3.25;;
70420;SDS011;57848;51.938;15.520;2023-07-13T05:32:39;9.00;;;2.80;;
70420;SDS011;57848;51.938;15.520;2023-07-13T05:35:04;9.63;;;3.00;;
70420;SDS011;57848;51.938;15.520;2023-07-13T05:37:30;8.25;;;2.70;;
70420;SDS011;57848;51.938;15.520;2023-07-13T05:39:56;11.00;;;2.70;;
70420;SDS011;57848;51.938;15.520;2023-07-13T05:42:21;9.07;;;3.30;;
70420;SDS011;57848;51.938;15.520;2023-07-13T05:44:46;9.07;;;3.07;;
70420;SDS011;57848;51.938;15.520;2023-07-13T05:47:12;8.47;;;3.23;;
70420;SDS011;57848;51.938;15.520;2023-07-13T05:49:39;9.60;;;3.08;;
70420;SDS011;57848;51.938;15.520;2023-07-13T05:52:04;7.70;;;2.70;;
70420;SDS011;57848;51.938;15.520;2023-07-13T05:54:30;9.20;;;3.50;;
70420;SDS011;57848;51.938;15.520;2023-07-13T05:56:55;7.20;;;2.73;;
70420;SDS011;57848;51.938;15.520;2023-07-13T05:59:21;8.07;;;2.70;;
70420;SDS011;57848;51.938;15.520;2023-07-13T06:01:46;9.00;;;2.70;;
70420;SDS011;57848;51.938;15.520;2023-07-13T06:04:11;10.10;;;3.60;;
70420;SDS011;57848;51.938;15.520;2023-07-13T06:06:37;8.30;;;2.90;;
70420;SDS011;57848;51.938;15.520;2023-07-13T06:09:02;7.97;;;2.95;;
70420;SDS011;57848;51.938;15.520;2023-07-13T06:11:27;9.37;;;3.27;;
70420;SDS011;57848;51.938;15.520;2023-07-13T06:13:55;8.88;;;3.25;;
70420;SDS011;57848;51.938;15.520;2023-07-13T06:16:21;9.27;;;3.15;;
70420;SDS011;57848;51.938;15.520;2023-07-13T06:18:47;8.57;;;2.87;;
70420;SDS011;57848;51.938;15.520;2023-07-13T06:21:14;8.35;;;2.72;;
70420;SDS011;57848;51.938;15.520;2023-07-13T06:23:43;9.63;;;3.53;;
70420;SDS011;57848;51.938;15.520;2023-07-13T06:26:09;8.23;;;2.85;;
70420;SDS011;57848;51.938;15.520;2023-07-13T06:28:36;8.68;;;3.17;;
70420;SDS011;57848;51.938;15.520;2023-07-13T06:31:04;8.43;;;3.35;;
70420;SDS011;57848;51.938;15.520;2023-07-13T06:33:34;8.40;;;3.55;;
70420;SDS011;57848;51.938;15.520;2023-07-13T06:35:59;9.67;;;3.10;;
70420;SDS011;57848;51.938;15.520;2023-07-13T06:38:25;7.47;;;2.90;;
70420;SDS011;57848;51.938;15.520;2023-07-13T06:40:51;8.23;;;2.80;;
70420;SDS011;57848;51.938;15.520;2023-07-13T06:43:16;9.17;;;3.07;;
70420;SDS011;57848;51.938;15.520;2023-07-13T06:45:43;8.63;;;2.90;;
70420;SDS011;57848;51.938;15.520;2023-07-13T06:48:12;8.02;;;2.78;;
70420;SDS011;57848;51.938;15.520;2023-07-13T06:50:38;11.30;;;3.97;;
70420;SDS011;57848;51.938;15.520;2023-07-13T06:53:03;7.77;;;2.90;;
70420;SDS011;57848;51.938;15.520;2023-07-13T06:55:29;8.40;;;3.03;;
70420;SDS011;57848;51.938;15.520;2023-07-13T06:57:54;9.17;;;2.90;;
70420;SDS011;57848;51.938;15.520;2023-07-13T07:00:19;10.00;;;3.47;;
70420;SDS011;57848;51.938;15.520;2023-07-13T07:02:45;8.03;;;2.80;;
70420;SDS011;57848;51.938;15.520;2023-07-13T07:05:10;7.90;;;3.10;;
70420;SDS011;57848;51.938;15.520;2023-07-13T07:07:35;7.80;;;2.85;;
70420;SDS011;57848;51.938;15.520;2023-07-13T07:10:01;7.70;;;2.77;;
70420;SDS011;57848;51.938;15.520;2023-07-13T07:12:26;10.30;;;2.80;;
70420;SDS011;57848;51.938;15.520;2023-07-13T07:14:51;8.13;;;2.50;;
70420;SDS011;57848;51.938;15.520;2023-07-13T07:17:17;8.43;;;3.00;;
70420;SDS011;57848;51.938;15.520;2023-07-13T07:19:42;11.90;;;3.23;;
70420;SDS011;57848;51.938;15.520;2023-07-13T07:22:07;9.15;;;3.22;;
70420;SDS011;57848;51.938;15.520;2023-07-13T07:24:33;8.00;;;2.67;;
70420;SDS011;57848;51.938;15.520;2023-07-13T07:26:58;8.27;;;2.67;;
70420;SDS011;57848;51.938;15.520;2023-07-13T07:29:24;7.83;;;2.20;;
70420;SDS011;57848;51.938;15.520;2023-07-13T07:31:51;10.88;;;2.70;;
70420;SDS011;57848;51.938;15.520;2023-07-13T07:34:17;7.07;;;2.83;;
70420;SDS011;57848;51.938;15.520;2023-07-13T07:36:42;7.73;;;2.60;;
70420;SDS011;57848;51.938;15.520;2023-07-13T07:39:07;8.13;;;3.23;;
70420;SDS011;57848;51.938;15.520;2023-07-13T07:41:33;7.37;;;2.40;;
70420;SDS011;57848;51.938;15.520;2023-07-13T07:43:58;8.77;;;2.20;;
70420;SDS011;57848;51.938;15.520;2023-07-13T07:46:23;6.30;;;2.05;;
70420;SDS011;57848;51.938;15.520;2023-07-13T07:48:49;7.17;;;2.10;;
70420;SDS011;57848;51.938;15.520;2023-07-13T07:51:14;6.07;;;2.30;;
70420;SDS011;57848;51.938;15.520;2023-07-13T07:53:39;8.80;;;2.23;;
70420;SDS011;57848;51.938;15.520;2023-07-13T07:56:05;6.10;;;2.00;;
70420;SDS011;57848;51.938;15.520;2023-07-13T07:58:31;5.97;;;1.33;;
70420;SDS011;57848;51.938;15.520;2023-07-13T08:01:03;6.47;;;1.83;;
70420;SDS011;57848;51.938;15.520;2023-07-13T08:03:30;6.28;;;1.73;;
70420;SDS011;57848;51.938;15.520;2023-07-13T08:05:55;7.50;;;1.97;;
70420;SDS011;57848;51.938;15.520;2023-07-13T08:08:20;6.80;;;1.90;;
70420;SDS011;57848;51.938;15.520;2023-07-13T08:10:46;9.07;;;1.97;;
70420;SDS011;57848;51.938;15.520;2023-07-13T08:13:11;7.15;;;1.80;;
70420;SDS011;57848;51.938;15.520;2023-07-13T08:15:37;6.23;;;1.87;;
70420;SDS011;57848;51.938;15.520;2023-07-13T08:18:02;6.03;;;1.70;;
70420;SDS011;57848;51.938;15.520;2023-07-13T08:20:27;8.98;;;1.75;;
70420;SDS011;57848;51.938;15.520;2023-07-13T08:22:53;5.67;;;1.70;;
70420;SDS011;57848;51.938;15.520;2023-07-13T08:25:18;7.67;;;2.03;;
70420;SDS011;57848;51.938;15.520;2023-07-13T08:27:45;6.93;;;2.00;;
70420;SDS011;57848;51.938;15.520;2023-07-13T08:30:11;9.20;;;2.27;;
70420;SDS011;57848;51.938;15.520;2023-07-13T08:32:36;10.97;;;1.70;;
70420;SDS011;57848;51.938;15.520;2023-07-13T08:35:02;9.20;;;1.92;;
70420;SDS011;57848;51.938;15.520;2023-07-13T08:37:28;7.25;;;1.63;;
70420;SDS011;57848;51.938;15.520;2023-07-13T08:39:53;5.23;;;1.60;;
70420;SDS011;57848;51.938;15.520;2023-07-13T08:42:32;6.93;;;2.03;;
70420;SDS011;57848;51.938;15.520;2023-07-13T08:45:12;7.18;;;1.90;;
70420;SDS011;57848;51.938;15.520;2023-07-13T08:47:45;9.05;;;2.28;;
70420;SDS011;57848;51.938;15.520;2023-07-13T08:50:15;8.38;;;1.80;;
70420;SDS011;57848;51.938;15.520;2023-07-13T08:52:44;5.13;;;1.70;;
70420;SDS011;57848;51.938;15.520;2023-07-13T08:55:20;8.50;;;2.08;;
70420;SDS011;57848;51.938;15.520;2023-07-13T08:57:54;7.35;;;2.17;;
70420;SDS011;57848;51.938;15.520;2023-07-13T09:00:25;8.25;;;1.83;;
70420;SDS011;57848;51.938;15.520;2023-07-13T09:03:02;6.70;;;1.70;;
70420;SDS011;57848;51.938;15.520;2023-07-13T09:06:01;5.93;;;2.13;;
70420;SDS011;57848;51.938;15.520;2023-07-13T09:16:44;7.30;;;1.73;;
70420;SDS011;57848;51.938;15.520;2023-07-13T09:19:19;10.63;;;1.98;;
70420;SDS011;57848;51.938;15.520;2023-07-13T09:21:49;10.93;;;2.33;;
70420;SDS011;57848;51.938;15.520;2023-07-13T09:27:15;10.65;;;2.63;;
70420;SDS011;57848;51.938;15.520;2023-07-13T09:29:46;7.53;;;1.83;;
70420;SDS011;57848;51.938;15.520;2023-07-13T09:32:14;7.85;;;1.83;;
70420;SDS011;57848;51.938;15.520;2023-07-13T09:34:50;8.02;;;2.10;;
70420;SDS011;57848;51.938;15.520;2023-07-13T09:37:16;7.10;;;1.83;;
70420;SDS011;57848;51.938;15.520;2023-07-13T09:39:41;6.23;;;2.07;;
70420;SDS011;57848;51.938;15.520;2023-07-13T09:47:15;6.23;;;2.07;;
70420;SDS011;57848;51.938;15.520;2023-07-13T09:49:43;12.35;;;2.22;;
70420;SDS011;57848;51.938;15.520;2023-07-13T09:52:12;6.47;;;2.25;;
70420;SDS011;57848;51.938;15.520;2023-07-13T09:54:43;6.78;;;2.10;;
70420;SDS011;57848;51.938;15.520;2023-07-13T09:57:12;10.50;;;2.47;;
70420;SDS011;57848;51.938;15.520;2023-07-13T09:59:40;8.70;;;2.20;;
70420;SDS011;57848;51.938;15.520;2023-07-13T10:02:28;7.28;;;1.90;;
70420;SDS011;57848;51.938;15.520;2023-07-13T10:04:56;7.32;;;2.30;;
70420;SDS011;57848;51.938;15.520;2023-07-13T10:07:23;6.43;;;2.22;;
70420;SDS011;57848;51.938;15.520;2023-07-13T10:09:53;7.83;;;2.20;;
70420;SDS011;57848;51.938;15.520;2023-07-13T10:12:19;6.68;;;1.90;;
70420;SDS011;57848;51.938;15.520;2023-07-13T10:14:45;6.25;;;2.05;;
70420;SDS011;57848;51.938;15.520;2023-07-13T10:17:12;6.57;;;1.80;;
70420;SDS011;57848;51.938;15.520;2023-07-13T10:19:39;6.70;;;1.90;;
70420;SDS011;57848;51.938;15.520;2023-07-13T10:22:16;8.60;;;1.87;;
70420;SDS011;57848;51.938;15.520;2023-07-13T10:24:50;4.93;;;1.80;;
70420;SDS011;57848;51.938;15.520;2023-07-13T10:27:17;7.55;;;1.80;;
70420;SDS011;57848;51.938;15.520;2023-07-13T10:29:55;6.65;;;1.80;;
70420;SDS011;57848;51.938;15.520;2023-07-13T10:32:26;8.23;;;2.00;;
70420;SDS011;57848;51.938;15.520;2023-07-13T10:34:52;6.35;;;1.63;;
70420;SDS011;57848;51.938;15.520;2023-07-13T10:37:24;5.35;;;1.42;;
70420;SDS011;57848;51.938;15.520;2023-07-13T10:39:53;5.43;;;1.80;;
70420;SDS011;57848;51.938;15.520;2023-07-13T10:42:35;7.20;;;1.70;;
70420;SDS011;57848;51.938;15.520;2023-07-13T10:45:17;5.93;;;1.95;;
70420;SDS011;57848;51.938;15.520;2023-07-13T10:47:45;6.57;;;1.60;;
70420;SDS011;57848;51.938;15.520;2023-07-13T10:50:19;6.65;;;1.60;;
70420;SDS011;57848;51.938;15.520;2023-07-13T10:52:48;7.87;;;1.97;;
70420;SDS011;57848;51.938;15.520;2023-07-13T10:55:32;6.68;;;1.83;;
70420;SDS011;57848;51.938;15.520;2023-07-13T10:58:22;6.70;;;1.45;;
70420;SDS011;57848;51.938;15.520;2023-07-13T11:03:28;6.90;;;1.48;;
70420;SDS011;57848;51.938;15.520;2023-07-13T11:06:06;7.00;;;1.80;;
70420;SDS011;57848;51.938;15.520;2023-07-13T11:11:53;8.02;;;1.67;;
70420;SDS011;57848;51.938;15.520;2023-07-13T11:13:59;8.80;;;1.58;;
70420;SDS011;57848;51.938;15.520;2023-07-13T11:16:33;5.45;;;1.55;;
70420;SDS011;57848;51.938;15.520;2023-07-13T11:21:28;8.35;;;1.75;;
70420;SDS011;57848;51.938;15.520;2023-07-13T11:24:13;8.07;;;1.55;;
70420;SDS011;57848;51.938;15.520;2023-07-13T11:32:01;6.27;;;1.57;;
70420;SDS011;57848;51.938;15.520;2023-07-13T11:34:45;7.03;;;1.48;;
70420;SDS011;57848;51.938;15.520;2023-07-13T11:37:11;6.80;;;1.60;;
70420;SDS011;57848;51.938;15.520;2023-07-13T11:39:41;6.63;;;1.70;;
70420;SDS011;57848;51.938;15.520;2023-07-13T11:42:09;7.28;;;1.63;;
70420;SDS011;57848;51.938;15.520;2023-07-13T11:44:42;6.38;;;1.88;;
70420;SDS011;57848;51.938;15.520;2023-07-13T11:47:18;5.70;;;1.65;;
70420;SDS011;57848;51.938;15.520;2023-07-13T11:49:51;4.63;;;1.53;;
70420;SDS011;57848;51.938;15.520;2023-07-13T11:52:22;6.30;;;1.67;;
70420;SDS011;57848;51.938;15.520;2023-07-13T11:54:52;8.35;;;1.80;;
70420;SDS011;57848;51.938;15.520;2023-07-13T11:57:28;8.05;;;1.58;;
70420;SDS011;57848;51.938;15.520;2023-07-13T11:59:56;7.13;;;2.10;;
70420;SDS011;57848;51.938;15.520;2023-07-13T12:02:32;6.77;;;1.90;;
70420;SDS011;57848;51.938;15.520;2023-07-13T12:05:01;5.28;;;1.58;;
70420;SDS011;57848;51.938;15.520;2023-07-13T12:07:29;6.15;;;1.70;;
70420;SDS011;57848;51.938;15.520;2023-07-13T12:10:03;8.60;;;1.80;;
70420;SDS011;57848;51.938;15.520;2023-07-13T12:12:51;6.57;;;1.70;;
70420;SDS011;57848;51.938;15.520;2023-07-13T12:15:19;7.50;;;1.67;;
70420;SDS011;57848;51.938;15.520;2023-07-13T12:17:47;6.55;;;1.88;;
70420;SDS011;57848;51.938;15.520;2023-07-13T12:20:33;5.75;;;1.80;;
70420;SDS011;57848;51.938;15.520;2023-07-13T12:23:01;6.13;;;1.60;;
70420;SDS011;57848;51.938;15.520;2023-07-13T12:25:30;7.68;;;1.70;;
70420;SDS011;57848;51.938;15.520;2023-07-13T12:27:56;6.63;;;2.00;;
70420;SDS011;57848;51.938;15.520;2023-07-13T12:32:57;6.27;;;1.63;;
70420;SDS011;57848;51.938;15.520;2023-07-13T12:35:39;6.33;;;1.70;;
70420;SDS011;57848;51.938;15.520;2023-07-13T12:38:10;7.53;;;1.73;;
70420;SDS011;57848;51.938;15.520;2023-07-13T12:40:36;6.15;;;2.00;;
70420;SDS011;57848;51.938;15.520;2023-07-13T12:43:02;8.10;;;2.00;;
70420;SDS011;57848;51.938;15.520;2023-07-13T12:45:29;8.18;;;1.70;;
70420;SDS011;57848;51.938;15.520;2023-07-13T12:48:02;7.83;;;2.20;;
70420;SDS011;57848;51.938;15.520;2023-07-13T12:50:40;6.82;;;1.98;;
70420;SDS011;57848;51.938;15.520;2023-07-13T12:53:12;6.25;;;2.00;;
70420;SDS011;57848;51.938;15.520;2023-07-13T12:55:42;7.10;;;2.10;;
70420;SDS011;57848;51.938;15.520;2023-07-13T12:58:14;6.68;;;1.70;;
70420;SDS011;57848;51.938;15.520;2023-07-13T13:00:48;6.63;;;1.70;;
70420;SDS011;57848;51.938;15.520;2023-07-13T13:03:30;8.55;;;1.88;;
70420;SDS011;57848;51.938;15.520;2023-07-13T13:06:03;6.40;;;1.77;;
70420;SDS011;57848;51.938;15.520;2023-07-13T13:08:47;6.70;;;1.80;;
70420;SDS011;57848;51.938;15.520;2023-07-13T13:11:17;6.07;;;1.65;;
70420;SDS011;57848;51.938;15.520;2023-07-13T13:13:44;6.77;;;1.97;;
70420;SDS011;57848;51.938;15.520;2023-07-13T13:16:22;7.15;;;2.20;;
70420;SDS011;57848;51.938;15.520;2023-07-13T13:18:51;7.60;;;1.95;;
70420;SDS011;57848;51.938;15.520;2023-07-13T13:21:18;5.57;;;1.95;;
70420;SDS011;57848;51.938;15.520;2023-07-13T13:23:44;5.50;;;1.50;;
70420;SDS011;57848;51.938;15.520;2023-07-13T13:26:11;6.37;;;1.80;;
70420;SDS011;57848;51.938;15.520;2023-07-13T13:28:37;6.03;;;1.80;;
70420;SDS011;57848;51.938;15.520;2023-07-13T13:31:03;7.10;;;2.00;;
70420;SDS011;57848;51.938;15.520;2023-07-13T13:33:28;6.75;;;1.70;;
70420;SDS011;57848;51.938;15.520;2023-07-13T13:35:55;6.50;;;2.13;;
70420;SDS011;57848;51.938;15.520;2023-07-13T13:38:24;6.43;;;1.95;;
70420;SDS011;57848;51.938;15.520;2023-07-13T13:40:51;6.15;;;1.90;;
70420;SDS011;57848;51.938;15.520;2023-07-13T13:43:17;6.27;;;2.00;;
70420;SDS011;57848;51.938;15.520;2023-07-13T13:45:43;6.80;;;2.00;;
70420;SDS011;57848;51.938;15.520;2023-07-13T13:48:16;6.27;;;1.80;;
70420;SDS011;57848;51.938;15.520;2023-07-13T13:50:43;8.05;;;1.80;;
70420;SDS011;57848;51.938;15.520;2023-07-13T13:53:10;5.50;;;1.60;;
70420;SDS011;57848;51.938;15.520;2023-07-13T13:55:37;7.53;;;1.67;;
70420;SDS011;57848;51.938;15.520;2023-07-13T13:58:03;7.05;;;1.80;;
70420;SDS011;57848;51.938;15.520;2023-07-13T14:00:29;6.17;;;1.90;;
70420;SDS011;57848;51.938;15.520;2023-07-13T14:02:55;8.10;;;2.13;;
70420;SDS011;57848;51.938;15.520;2023-07-13T14:05:22;6.75;;;2.15;;
70420;SDS011;57848;51.938;15.520;2023-07-13T14:07:51;8.85;;;2.25;;
70420;SDS011;57848;51.938;15.520;2023-07-13T14:10:18;6.37;;;2.03;;
70420;SDS011;57848;51.938;15.520;2023-07-13T14:12:45;8.13;;;2.05;;
70420;SDS011;57848;51.938;15.520;2023-07-13T14:15:18;6.60;;;1.80;;
70420;SDS011;57848;51.938;15.520;2023-07-13T14:17:46;5.47;;;1.67;;
70420;SDS011;57848;51.938;15.520;2023-07-13T14:20:14;7.05;;;1.70;;
70420;SDS011;57848;51.938;15.520;2023-07-13T14:22:41;6.00;;;1.80;;
70420;SDS011;57848;51.938;15.520;2023-07-13T14:25:10;6.82;;;1.83;;
70420;SDS011;57848;51.938;15.520;2023-07-13T14:27:36;6.63;;;2.03;;
70420;SDS011;57848;51.938;15.520;2023-07-13T14:30:01;5.73;;;1.90;;
70420;SDS011;57848;51.938;15.520;2023-07-13T14:32:27;6.50;;;1.60;;
70420;SDS011;57848;51.938;15.520;2023-07-13T14:34:52;6.60;;;1.90;;
70420;SDS011;57848;51.938;15.520;2023-07-13T14:37:18;6.20;;;2.40;;
70420;SDS011;57848;51.938;15.520;2023-07-13T14:39:44;6.67;;;1.80;;
70420;SDS011;57848;51.938;15.520;2023-07-13T14:42:13;7.20;;;2.00;;
70420;SDS011;57848;51.938;15.520;2023-07-13T14:44:38;8.67;;;2.03;;
70420;SDS011;57848;51.938;15.520;2023-07-13T14:47:05;6.07;;;1.77;;
70420;SDS011;57848;51.938;15.520;2023-07-13T14:49:34;8.35;;;1.95;;
70420;SDS011;57848;51.938;15.520;2023-07-13T14:52:18;6.78;;;1.70;;
70420;SDS011;57848;51.938;15.520;2023-07-13T14:54:45;6.50;;;1.73;;
70420;SDS011;57848;51.938;15.520;2023-07-13T14:57:12;5.70;;;1.63;;
70420;SDS011;57848;51.938;15.520;2023-07-13T14:59:38;5.13;;;1.48;;
70420;SDS011;57848;51.938;15.520;2023-07-13T15:02:09;5.43;;;1.70;;
70420;SDS011;57848;51.938;15.520;2023-07-13T15:04:39;6.50;;;1.88;;
70420;SDS011;57848;51.938;15.520;2023-07-13T15:07:05;8.20;;;1.70;;
70420;SDS011;57848;51.938;15.520;2023-07-13T15:09:30;7.23;;;1.93;;
70420;SDS011;57848;51.938;15.520;2023-07-13T15:11:56;5.93;;;1.70;;
70420;SDS011;57848;51.938;15.520;2023-07-13T15:14:21;6.70;;;1.80;;